Terminal Aerodrome Forecast
Issued by NWS

Home | Current Version | Previous Version | Text Only | Print | Product List | Glossary On
Versions: 1 2 3 4 5 6 7 8 9 10 11 12 13 14 15 16 17 18
338
FTUS43 KGRR 242340
TAFBTL
TAF
KBTL 242340Z 2500/2524 31009KT P6SM OVC013
     FM250600 VRB03KT 5SM -RASN BR OVC008
     FM251200 13006KT 4SM BR OVC015
     FM251500 16008KT 1 1/2SM -DZ BR OVC005
     FM252200 21008KT 4SM BR OVC015=

USA.gov is the U.S. government's official web portal to all federal, state and local government web resources and services.